Time;durP1;ratioP1;P1;durP2;ratioP2;P2;SDS_P1;SDS_P2;PMS_P1;PMS_P2;Temp;Humidity;BMP_temperature;BMP_pressure;BME280_temperature;BME280_humidity;BME280_pressure;Samples;Min_cycle;Max_cycle;Signal;HPM_P1;HPM_P2
2023/08/12 00:00:13;;;;;;;21.23;12.57;;;;;;;19.08;100.00;101692.16;10456462;28;20037;-68
2023/08/12 00:05:13;;;;;;;16.83;9.65;;;;;;;19.06;100.00;101679.59;10460053;28;20048;-68
2023/08/12 00:10:14;;;;;;;16.90;8.35;;;;;;;19.05;100.00;101686.31;10457555;28;20120;-68
2023/08/12 00:15:14;;;;;;;12.95;6.72;;;;;;;19.01;100.00;101677.69;10454496;28;20119;-69
2023/08/12 00:20:16;;;;;;;12.55;5.68;;;;;;;18.97;100.00;101678.56;10456681;28;20482;-68
2023/08/12 00:25:16;;;;;;;9.45;6.63;;;;;;;18.99;100.00;101688.31;10422985;28;20110;-66
2023/08/12 00:30:17;;;;;;;9.73;5.90;;;;;;;18.99;100.00;101679.94;10457503;28;20037;-67
2023/08/12 00:35:17;;;;;;;12.18;5.35;;;;;;;18.93;100.00;101690.31;10450367;28;20037;-68
2023/08/12 00:40:18;;;;;;;14.25;5.25;;;;;;;18.91;100.00;101680.56;10456593;28;20037;-68
2023/08/12 00:45:18;;;;;;;11.18;5.20;;;;;;;18.84;100.00;101689.25;10457458;28;20037;-68
2023/08/12 00:50:19;;;;;;;11.55;5.53;;;;;;;18.74;100.00;101689.31;10452834;28;20033;-68
2023/08/12 00:55:19;;;;;;;9.65;5.05;;;;;;;18.69;100.00;101681.81;10413034;28;20068;-68
2023/08/12 01:00:20;;;;;;;11.25;4.68;;;;;;;18.63;100.00;101685.75;10422573;28;20071;-69
2023/08/12 01:05:21;;;;;;;11.40;5.75;;;;;;;18.54;100.00;101682.75;10457567;28;20052;-68
2023/08/12 01:10:22;;;;;;;11.63;5.47;;;;;;;18.43;100.00;101666.38;10456969;28;20037;-68
2023/08/12 01:15:24;;;;;;;12.57;5.40;;;;;;;18.42;100.00;101668.31;10451379;28;20033;-68
2023/08/12 01:20:26;;;;;;;11.35;5.50;;;;;;;18.35;100.00;101671.44;10453193;28;20082;-68
2023/08/12 01:25:26;;;;;;;10.45;4.78;;;;;;;18.32;100.00;101669.22;10454648;28;20037;-68
2023/08/12 01:30:27;;;;;;;9.73;5.68;;;;;;;18.28;100.00;101661.72;10457242;28;20085;-68
2023/08/12 01:35:30;;;;;;;9.68;5.25;;;;;;;18.25;100.00;101662.28;10447059;28;20032;-68
2023/08/12 01:40:31;;;;;;;13.20;6.22;;;;;;;18.20;100.00;101646.41;10437194;28;20071;-68
2023/08/12 01:45:32;;;;;;;12.77;5.63;;;;;;;18.18;100.00;101637.50;10432733;28;20067;-68
2023/08/12 01:50:32;;;;;;;11.73;5.53;;;;;;;18.09;100.00;101636.47;10446677;28;20056;-68
2023/08/12 01:55:33;;;;;;;12.00;5.80;;;;;;;18.09;100.00;101625.31;10453878;28;20063;-67
2023/08/12 02:00:33;;;;;;;13.13;6.00;;;;;;;18.00;100.00;101615.88;10457225;28;20067;-67
2023/08/12 02:05:34;;;;;;;11.85;5.80;;;;;;;17.94;100.00;101613.13;10462685;28;20037;-68
2023/08/12 02:10:35;;;;;;;11.82;5.28;;;;;;;17.89;100.00;101606.75;10460218;28;20033;-67
2023/08/12 02:15:35;;;;;;;10.85;6.45;;;;;;;17.88;100.00;101605.91;10460808;28;20460;-66
2023/08/12 02:20:36;;;;;;;13.15;5.78;;;;;;;17.86;100.00;101605.38;10461719;28;20045;-67
2023/08/12 02:25:36;;;;;;;12.15;6.78;;;;;;;17.84;100.00;101590.03;10462047;28;20041;-68
2023/08/12 02:30:37;;;;;;;14.23;7.72;;;;;;;17.80;100.00;101589.75;10462449;28;20040;-68
2023/08/12 02:35:38;;;;;;;13.98;7.35;;;;;;;17.78;100.00;101602.28;10463531;28;20485;-67
2023/08/12 02:40:38;;;;;;;16.95;9.20;;;;;;;17.77;100.00;101593.09;10460283;28;20048;-68
2023/08/12 02:45:39;;;;;;;17.02;8.20;;;;;;;17.84;100.00;101588.09;10454634;28;20045;-67
2023/08/12 02:50:39;;;;;;;14.40;8.20;;;;;;;17.88;100.00;101580.84;10455623;28;20095;-67
2023/08/12 02:55:40;;;;;;;17.30;9.18;;;;;;;18.00;100.00;101565.72;10453279;28;20040;-67
2023/08/12 03:00:43;;;;;;;16.45;8.77;;;;;;;18.05;100.00;101576.84;10462847;28;20040;-66
2023/08/12 03:05:46;;;;;;;21.77;10.13;;;;;;;18.10;100.00;101574.03;10444182;28;20037;-68
2023/08/12 03:10:47;;;;;;;18.52;9.95;;;;;;;18.15;100.00;101571.22;10450486;28;20041;-67
2023/08/12 03:15:47;;;;;;;17.13;10.05;;;;;;;18.17;100.00;101555.03;10458140;28;20049;-67
2023/08/12 03:20:48;;;;;;;32.45;12.10;;;;;;;18.18;100.00;101556.69;10457787;28;20033;-68
2023/08/12 03:25:48;;;;;;;23.50;11.23;;;;;;;18.21;100.00;101550.56;10460702;28;20063;-65
2023/08/12 03:30:52;;;;;;;19.13;10.02;;;;;;;18.19;100.00;101524.94;10462058;28;20540;-67
2023/08/12 03:35:52;;;;;;;24.40;9.65;;;;;;;18.24;100.00;101519.31;10458978;28;20033;-68
2023/08/12 03:40:53;;;;;;;19.88;10.40;;;;;;;18.22;100.00;101521.56;10459510;28;20052;-68
2023/08/12 03:45:53;;;;;;;20.63;10.90;;;;;;;18.11;100.00;101529.16;10457933;28;20374;-67
2023/08/12 03:50:54;;;;;;;27.42;10.48;;;;;;;18.05;100.00;101523.91;10456484;28;20033;-67
2023/08/12 03:55:54;;;;;;;22.63;12.00;;;;;;;17.94;100.00;101518.41;10440723;28;20029;-67
2023/08/12 04:00:55;;;;;;;25.90;11.95;;;;;;;17.90;100.00;101517.31;10442141;28;20037;-68
2023/08/12 04:05:55;;;;;;;22.60;11.98;;;;;;;17.91;100.00;101513.41;10457392;28;20037;-67
2023/08/12 04:10:56;;;;;;;26.25;12.77;;;;;;;17.91;100.00;101520.94;10456095;28;20037;-68
2023/08/12 04:15:56;;;;;;;24.35;12.10;;;;;;;17.95;100.00;101513.66;10415352;28;20064;-67
2023/08/12 04:20:57;;;;;;;28.98;13.75;;;;;;;18.06;100.00;101514.41;10411105;28;20545;-69
2023/08/12 04:25:57;;;;;;;29.33;13.43;;;;;;;18.14;100.00;101500.69;10430188;28;20055;-67
2023/08/12 04:30:58;;;;;;;27.55;14.65;;;;;;;18.17;100.00;101496.53;10458539;28;20036;-67
2023/08/12 04:35:58;;;;;;;23.88;13.07;;;;;;;18.22;100.00;101492.84;10455515;28;20595;-67
2023/08/12 04:40:59;;;;;;;31.33;15.07;;;;;;;18.33;100.00;101494.41;10447574;28;20500;-68
2023/08/12 04:45:59;;;;;;;28.98;14.73;;;;;;;18.30;100.00;101481.09;10453415;28;20064;-67
2023/08/12 04:51:01;;;;;;;27.30;13.38;;;;;;;18.32;100.00;101485.22;10451602;28;20041;-68
2023/08/12 04:56:02;;;;;;;37.30;14.77;;;;;;;18.39;100.00;101492.44;10456676;28;20655;-67
2023/08/12 05:01:02;;;;;;;29.73;14.52;;;;;;;18.41;100.00;101476.25;10450968;28;20128;-68
2023/08/12 05:06:03;;;;;;;28.42;14.43;;;;;;;18.52;100.00;101477.81;10447694;28;20041;-68
2023/08/12 05:11:03;;;;;;;35.63;15.60;;;;;;;18.48;100.00;101471.16;10454520;28;20037;-68
2023/08/12 05:16:04;;;;;;;33.38;15.45;;;;;;;18.58;100.00;101468.25;10454459;28;20545;-68
2023/08/12 05:21:04;;;;;;;23.77;13.45;;;;;;;18.60;100.00;101460.44;10447455;28;20087;-68
2023/08/12 05:26:05;;;;;;;28.20;14.60;;;;;;;18.65;100.00;101465.16;10455906;28;20052;-68
2023/08/12 05:31:05;;;;;;;31.05;14.80;;;;;;;18.64;100.00;101463.47;10455840;28;20044;-68
2023/08/12 05:36:06;;;;;;;29.15;14.95;;;;;;;18.68;100.00;101459.78;10458997;28;20414;-68
2023/08/12 05:41:08;;;;;;;25.38;15.15;;;;;;;18.78;100.00;101460.81;10457736;28;20457;-67
2023/08/12 05:46:08;;;;;;;28.90;15.55;;;;;;;18.85;100.00;101461.31;10464021;28;20071;-68
2023/08/12 05:51:09;;;;;;;26.83;14.07;;;;;;;18.96;100.00;101451.72;10452229;28;20091;-68
2023/08/12 05:56:09;;;;;;;27.42;14.77;;;;;;;19.03;100.00;101452.19;10463662;28;20033;-67
2023/08/12 06:01:10;;;;;;;26.63;14.60;;;;;;;19.16;100.00;101445.03;10464353;28;20078;-68
2023/08/12 06:06:10;;;;;;;23.63;13.63;;;;;;;19.35;100.00;101456.28;10463210;28;20052;-67
2023/08/12 06:11:11;;;;;;;26.13;15.45;;;;;;;19.47;100.00;101455.81;10461423;28;20064;-68
2023/08/12 06:16:11;;;;;;;26.00;14.30;;;;;;;19.65;100.00;101443.00;10462117;28;20034;-68
2023/08/12 06:21:12;;;;;;;23.38;13.15;;;;;;;19.85;100.00;101451.09;10454618;28;20044;-68
2023/08/12 06:26:12;;;;;;;23.70;14.25;;;;;;;20.16;100.00;101436.63;10463365;28;20037;-68
2023/08/12 06:31:13;;;;;;;21.65;12.65;;;;;;;20.42;100.00;101422.19;10463056;28;20052;-68
2023/08/12 06:36:13;;;;;;;18.17;12.10;;;;;;;20.79;100.00;101417.59;10462362;28;20040;-68
2023/08/12 06:41:14;;;;;;;22.15;14.18;;;;;;;20.89;100.00;101429.41;10455530;28;20067;-68
2023/08/12 06:46:14;;;;;;;23.70;14.18;;;;;;;20.86;100.00;101418.88;10459294;28;20052;-68
2023/08/12 06:51:15;;;;;;;23.65;14.43;;;;;;;20.60;100.00;101379.34;10444851;28;20087;-68
2023/08/12 06:56:15;;;;;;;23.30;13.95;;;;;;;20.77;100.00;101423.50;10449406;28;20041;-67
2023/08/12 07:01:15;;;;;;;26.85;15.77;;;;;;;20.73;100.00;101428.06;10447467;28;20087;-68
2023/08/12 07:06:16;;;;;;;25.10;17.02;;;;;;;20.71;100.00;101425.59;10446002;28;20052;-68
2023/08/12 07:11:16;;;;;;;29.70;17.83;;;;;;;20.78;100.00;101435.56;10443934;28;20485;-65
2023/08/12 07:16:17;;;;;;;30.25;19.73;;;;;;;20.82;100.00;101419.81;10446739;28;20033;-68
2023/08/12 07:21:17;;;;;;;29.65;17.95;;;;;;;20.78;100.00;101418.75;10440652;28;20127;-67
2023/08/12 07:26:18;;;;;;;25.63;18.40;;;;;;;20.73;100.00;101433.66;10444400;28;20059;-67
2023/08/12 07:31:18;;;;;;;26.95;18.33;;;;;;;20.72;100.00;101441.22;10446613;28;20041;-68
2023/08/12 07:36:19;;;;;;;30.77;18.80;;;;;;;20.72;100.00;101437.59;10441790;28;20047;-68
2023/08/12 07:41:19;;;;;;;31.98;18.58;;;;;;;20.67;100.00;101416.16;10447791;28;20468;-68
2023/08/12 07:46:20;;;;;;;32.08;20.30;;;;;;;20.66;100.00;101417.28;10458205;28;20051;-68
2023/08/12 07:51:21;;;;;;;38.92;19.73;;;;;;;20.65;100.00;101426.84;10451714;28;20044;-66
2023/08/12 07:56:21;;;;;;;33.47;20.65;;;;;;;20.65;100.00;101424.03;10445282;28;20468;-67
2023/08/12 08:01:22;;;;;;;29.88;19.75;;;;;;;20.68;100.00;101397.41;10447056;28;20037;-67
2023/08/12 08:06:23;;;;;;;36.97;20.00;;;;;;;20.61;100.00;101400.63;10459140;28;20048;-65
2023/08/12 08:11:24;;;;;;;26.92;18.98;;;;;;;20.71;100.00;101391.16;10458266;28;20117;-65
2023/08/12 08:16:24;;;;;;;28.02;19.00;;;;;;;20.74;100.00;101391.38;10459045;28;20043;-67
2023/08/12 08:21:25;;;;;;;32.78;19.98;;;;;;;20.77;100.00;101384.34;10446446;28;20044;-67
2023/08/12 08:26:26;;;;;;;37.30;20.05;;;;;;;20.82;100.00;101392.63;10456042;28;20044;-67
2023/08/12 08:31:27;;;;;;;31.48;19.30;;;;;;;20.94;100.00;101400.53;10458672;28;20033;-68
2023/08/12 08:36:27;;;;;;;29.58;18.70;;;;;;;21.03;100.00;101397.81;10458263;28;20064;-67
2023/08/12 08:41:28;;;;;;;30.35;18.60;;;;;;;21.05;100.00;101404.75;10446109;28;20057;-68
2023/08/12 08:46:29;;;;;;;29.58;19.00;;;;;;;20.94;100.00;101394.94;10454616;28;20041;-68
2023/08/12 08:51:30;;;;;;;34.65;21.20;;;;;;;20.77;100.00;101406.72;10446797;28;20404;-67
2023/08/12 08:56:33;;;;;;;37.10;23.73;;;;;;;20.58;100.00;101395.63;10455870;28;20045;-72
2023/08/12 09:01:34;;;;;;;40.85;24.55;;;;;;;20.40;100.00;101391.72;10455265;28;20037;-73
2023/08/12 09:06:34;;;;;;;41.10;24.50;;;;;;;20.20;100.00;101387.38;10459308;28;20047;-72
2023/08/12 09:11:35;;;;;;;46.45;25.90;;;;;;;20.27;100.00;101382.19;10440454;28;20045;-71
2023/08/12 09:16:35;;;;;;;48.00;26.75;;;;;;;20.22;100.00;101362.72;10477499;28;20036;-71
2023/08/12 09:21:36;;;;;;;49.17;26.35;;;;;;;20.27;100.00;101354.22;10448228;28;20036;-71
2023/08/12 09:26:36;;;;;;;50.17;26.33;;;;;;;20.31;100.00;101360.84;10452019;28;20140;-71
2023/08/12 09:31:37;;;;;;;41.42;25.40;;;;;;;20.19;100.00;101346.56;10478488;28;20048;-72
2023/08/12 09:36:38;;;;;;;43.13;25.52;;;;;;;20.16;100.00;101319.22;10405644;28;20077;-72
2023/08/12 09:41:39;;;;;;;49.40;26.95;;;;;;;20.08;100.00;101320.75;10414006;28;20520;-74
2023/08/12 09:46:39;;;;;;;45.10;26.83;;;;;;;19.88;100.00;101338.72;10403233;28;20057;-75
2023/08/12 09:51:42;;;;;;;52.83;26.27;;;;;;;19.82;100.00;101351.09;10432192;28;20040;-74
2023/08/12 09:56:42;;;;;;;50.45;27.38;;;;;;;19.75;100.00;101343.13;10416320;28;20047;-75
2023/08/12 10:01:42;;;;;;;51.42;27.58;;;;;;;19.53;100.00;101301.00;10415608;28;20048;-76
2023/08/12 10:06:43;;;;;;;47.22;25.73;;;;;;;19.80;100.00;101336.63;10416139;28;20041;-79
2023/08/12 10:11:45;;;;;;;41.78;23.73;;;;;;;19.73;100.00;101341.78;10415380;28;20104;-78
2023/08/12 10:16:46;;;;;;;30.35;18.17;;;;;;;19.65;100.00;101331.28;10447598;28;20029;-80
2023/08/12 10:21:48;;;;;;;22.17;13.20;;;;;;;19.51;100.00;101348.81;10460678;28;20033;-79
2023/08/12 10:26:50;;;;;;;18.92;10.68;;;;;;;19.44;100.00;101334.38;10437702;28;20120;-78
2023/08/12 10:31:50;;;;;;;15.75;9.30;;;;;;;19.25;100.00;101316.84;10466347;28;20131;-79
2023/08/12 10:36:57;;;;;;;17.33;9.98;;;;;;;19.47;100.00;101331.00;10438705;28;20109;-77
2023/08/12 10:41:58;;;;;;;15.57;9.00;;;;;;;19.56;100.00;101323.59;10433431;28;20041;-76
2023/08/12 10:46:59;;;;;;;12.70;8.38;;;;;;;19.59;100.00;101330.50;10428564;28;20069;-75
2023/08/12 10:51:59;;;;;;;11.18;7.70;;;;;;;19.59;100.00;101322.13;10436206;28;20074;-77
2023/08/12 10:57:03;;;;;;;14.32;7.95;;;;;;;19.51;100.00;101315.31;10451690;28;20063;-79
2023/08/12 11:02:08;;;;;;;19.20;7.97;;;;;;;19.46;100.00;101309.78;10450119;28;20048;-78
2023/08/12 11:07:19;;;;;;;18.13;9.45;;;;;;;19.50;100.00;101313.63;10452193;28;20033;-79
2023/08/12 11:12:33;;;;;;;9.50;6.70;;;;;;;19.55;100.00;101288.44;10438594;28;20037;-77
2023/08/12 11:17:35;;;;;;;9.52;6.88;;;;;;;19.58;100.00;101275.81;10465280;28;20028;-76
2023/08/12 11:22:39;;;;;;;12.73;7.03;;;;;;;19.76;100.00;101288.06;10460148;28;20043;-77
2023/08/12 11:27:41;;;;;;;12.60;7.70;;;;;;;19.88;100.00;101293.19;10480583;28;20041;-76
2023/08/12 11:32:43;;;;;;;14.05;8.10;;;;;;;19.97;100.00;101288.56;10426928;28;20033;-75
2023/08/12 11:37:52;;;;;;;13.75;7.85;;;;;;;20.03;100.00;101289.28;10461566;28;20033;-76
2023/08/12 11:42:53;;;;;;;9.73;7.60;;;;;;;20.36;100.00;101278.84;10481661;28;20060;-74
2023/08/12 11:47:54;;;;;;;11.10;7.05;;;;;;;20.41;100.00;101286.31;10471544;28;20037;-76
2023/08/12 11:52:55;;;;;;;7.85;5.85;;;;;;;20.35;100.00;101278.00;10471216;28;20116;-76
2023/08/12 11:57:57;;;;;;;9.27;6.63;;;;;;;20.33;100.00;101280.28;10454023;28;20043;-76
2023/08/12 12:02:58;;;;;;;7.40;5.70;;;;;;;20.31;100.00;101285.38;10466971;28;20535;-76
2023/08/12 12:07:59;;;;;;;5.35;4.80;;;;;;;20.21;100.00;101285.56;10481633;28;20036;-76
2023/08/12 12:13:00;;;;;;;7.18;4.80;;;;;;;20.15;100.00;101284.84;10462355;28;20413;-76
2023/08/12 12:18:00;;;;;;;4.72;2.60;;;;;;;19.78;100.00;101296.97;10478322;28;20109;-79
2023/08/12 12:23:05;;;;;;;4.50;3.08;;;;;;;19.67;100.00;101307.47;10459739;28;20045;-78
2023/08/12 12:28:06;;;;;;;4.93;3.40;;;;;;;19.53;100.00;101317.75;10439609;28;20037;-77
2023/08/12 12:33:06;;;;;;;3.58;2.88;;;;;;;19.36;100.00;101323.91;10478766;28;20076;-79
2023/08/12 12:38:07;;;;;;;3.22;2.55;;;;;;;19.28;100.00;101300.28;10474937;28;20067;-78
2023/08/12 12:43:07;;;;;;;4.68;3.55;;;;;;;19.50;100.00;101313.63;10464802;28;20075;-77
2023/08/12 12:48:08;;;;;;;4.70;2.50;;;;;;;19.72;100.00;101296.25;10459426;28;20052;-76
2023/08/12 12:53:08;;;;;;;3.50;2.00;;;;;;;20.29;100.00;101296.03;10472018;28;20048;-68
2023/08/12 12:58:09;;;;;;;2.35;1.08;;;;;;;20.88;100.00;101290.66;10476788;28;20052;-75
2023/08/12 13:03:09;;;;;;;0.75;0.75;;;;;;;20.69;100.00;101310.38;10439196;28;20072;-76
2023/08/12 13:08:10;;;;;;;3.22;0.90;;;;;;;20.48;100.00;101331.47;10471766;28;20052;-75
2023/08/12 13:13:13;;;;;;;2.00;1.33;;;;;;;19.86;100.00;101349.38;10461764;28;20075;-76
2023/08/12 13:18:14;;;;;;;5.75;1.85;;;;;;;19.31;100.00;101337.97;10478197;28;20065;-77
2023/08/12 13:23:15;;;;;;;4.18;1.50;;;;;;;19.28;100.00;101333.78;10470851;28;20044;-76
2023/08/12 13:28:15;;;;;;;6.05;2.20;;;;;;;19.80;100.00;101356.19;10472660;28;20100;-77
2023/08/12 13:33:15;;;;;;;6.20;2.58;;;;;;;20.38;100.00;101362.41;10462705;28;20048;-76
2023/08/12 13:38:16;;;;;;;4.22;2.30;;;;;;;20.84;100.00;101361.56;10480824;28;20043;-77
2023/08/12 13:43:17;;;;;;;3.45;1.15;;;;;;;21.04;100.00;101375.09;10475678;28;20060;-78
2023/08/12 13:48:17;;;;;;;2.55;1.10;;;;;;;21.58;100.00;101307.22;10464888;28;20053;-80
2023/08/12 13:53:18;;;;;;;6.80;2.03;;;;;;;23.02;100.00;101369.53;10472600;28;20041;-79
2023/08/12 13:58:18;;;;;;;5.45;1.10;;;;;;;23.69;100.00;101357.03;10479791;28;20049;-79
2023/08/12 14:03:19;;;;;;;5.63;1.58;;;;;;;24.03;100.00;101332.03;10422987;28;20045;-78
2023/08/12 14:08:19;;;;;;;6.38;1.90;;;;;;;24.81;100.00;101356.25;10421839;28;20092;-78
2023/08/12 14:13:20;;;;;;;4.72;1.38;;;;;;;24.97;100.00;101365.72;10406151;28;20046;-76
2023/08/12 14:18:20;;;;;;;2.42;1.23;;;;;;;25.76;100.00;101358.38;10421341;28;20504;-76
2023/08/12 14:23:21;;;;;;;6.28;1.10;;;;;;;25.78;100.00;101372.94;10428984;28;20405;-77
2023/08/12 14:28:21;;;;;;;4.35;1.35;;;;;;;26.24;100.00;101356.06;10462494;28;20416;-75
2023/08/12 14:33:24;;;;;;;5.70;1.65;;;;;;;26.20;100.00;101331.72;10460756;28;20420;-75
2023/08/12 14:38:24;;;;;;;4.43;1.70;;;;;;;26.22;100.00;101347.13;10426828;28;20052;-75
2023/08/12 14:43:25;;;;;;;4.95;1.40;;;;;;;25.49;100.00;101356.13;10441904;28;20048;-73
2023/08/12 14:48:25;;;;;;;3.63;1.40;;;;;;;26.09;100.00;101351.09;10485237;28;20051;-73
2023/08/12 14:53:27;;;;;;;5.15;1.90;;;;;;;25.44;100.00;101319.69;10472963;28;20033;-72
2023/08/12 14:58:27;;;;;;;2.88;1.33;;;;;;;24.85;100.00;101365.66;10461845;28;20045;-72
2023/08/12 15:03:28;;;;;;;6.07;1.60;;;;;;;23.87;100.00;101357.84;10482691;28;20036;-72
2023/08/12 15:08:28;;;;;;;6.45;1.52;;;;;;;24.24;100.00;101354.63;10460226;28;20037;-71
2023/08/12 15:13:29;;;;;;;4.88;1.25;;;;;;;24.51;100.00;101339.31;10479406;28;20121;-71
2023/08/12 15:18:29;;;;;;;7.20;1.73;;;;;;;23.55;100.00;101350.75;10479558;28;20040;-72
2023/08/12 15:23:30;;;;;;;4.50;1.30;;;;;;;23.86;100.00;101361.81;10478618;28;20040;-71
2023/08/12 15:28:30;;;;;;;5.40;1.77;;;;;;;24.17;100.00;101355.16;10482857;28;20040;-70
2023/08/12 15:33:31;;;;;;;9.35;0.98;;;;;;;24.38;100.00;101327.91;10479459;28;20040;-71
2023/08/12 15:38:31;;;;;;;7.72;1.23;;;;;;;25.39;100.00;101319.91;10426899;28;20066;-70
2023/08/12 15:43:32;;;;;;;6.15;1.80;;;;;;;25.80;100.00;101337.91;10417832;28;20033;-71
2023/08/12 15:48:32;;;;;;;10.20;1.63;;;;;;;25.95;100.00;101338.13;10418883;28;20099;-70
2023/08/12 15:53:33;;;;;;;4.90;1.40;;;;;;;24.77;100.00;101342.81;10417210;28;20056;-70
2023/08/12 15:58:33;;;;;;;7.13;1.30;;;;;;;24.35;100.00;101336.19;10453762;28;20041;-70
2023/08/12 16:03:35;;;;;;;4.10;1.27;;;;;;;25.19;100.00;101330.78;10452650;28;20037;-70
2023/08/12 16:08:35;;;;;;;7.05;1.88;;;;;;;26.07;100.00;101322.41;10449906;28;20048;-70
2023/08/12 16:13:36;;;;;;;5.13;1.60;;;;;;;26.10;100.00;101328.16;10458303;28;20574;-71
2023/08/12 16:18:36;;;;;;;3.83;1.10;;;;;;;26.25;100.00;101329.50;10454305;28;20048;-70
2023/08/12 16:23:36;;;;;;;6.28;1.33;;;;;;;26.11;100.00;101323.38;10457473;28;20448;-69
2023/08/12 16:28:37;;;;;;;3.63;1.40;;;;;;;25.61;100.00;101315.88;10455798;28;20056;-70
2023/08/12 16:33:37;;;;;;;7.70;1.40;;;;;;;25.42;100.00;101330.47;10448157;28;20033;-69
2023/08/12 16:38:38;;;;;;;11.45;2.35;;;;;;;24.46;100.00;101356.38;10457665;28;20040;-68
2023/08/12 16:43:39;;;;;;;8.25;1.55;;;;;;;24.14;100.00;101347.38;10457970;28;20041;-69
2023/08/12 16:48:39;;;;;;;4.20;1.48;;;;;;;23.27;100.00;101372.69;10457430;28;20037;-68
2023/08/12 16:53:40;;;;;;;5.47;1.45;;;;;;;22.75;100.00;101365.78;10455938;28;20053;-70
2023/08/12 16:58:40;;;;;;;5.10;1.17;;;;;;;22.26;100.00;101364.94;10453355;28;20033;-71
2023/08/12 17:03:41;;;;;;;11.82;1.90;;;;;;;21.62;100.00;101325.06;10450724;28;20043;-70
2023/08/12 17:08:41;;;;;;;7.82;1.65;;;;;;;21.66;100.00;101366.13;10456699;28;20056;-69
2023/08/12 17:13:42;;;;;;;6.38;1.48;;;;;;;21.38;100.00;101359.78;10456561;28;20105;-70
2023/08/12 17:18:42;;;;;;;7.05;1.70;;;;;;;21.09;100.00;101363.78;10455968;28;20044;-70
2023/08/12 17:23:43;;;;;;;9.60;2.55;;;;;;;21.14;100.00;101383.25;10454373;28;20111;-69
2023/08/12 17:28:43;;;;;;;7.00;1.33;;;;;;;20.96;100.00;101375.84;10452223;28;20041;-70
2023/08/12 17:33:43;;;;;;;12.40;1.65;;;;;;;20.65;100.00;101379.28;10454039;28;20057;-70
2023/08/12 17:38:44;;;;;;;5.63;2.15;;;;;;;20.48;100.00;101381.81;10435930;28;20510;-70
2023/08/12 17:43:46;;;;;;;7.88;2.47;;;;;;;20.45;100.00;101399.22;10450512;28;20512;-70
2023/08/12 17:48:47;;;;;;;5.63;1.55;;;;;;;20.29;100.00;101402.28;10475827;28;20037;-70
2023/08/12 17:53:48;;;;;;;6.05;1.92;;;;;;;20.11;100.00;101412.41;10477172;28;20045;-68
2023/08/12 17:58:48;;;;;;;8.38;1.63;;;;;;;20.01;100.00;101428.50;10482312;28;20047;-69
2023/08/12 18:03:49;;;;;;;8.35;1.48;;;;;;;19.85;100.00;101419.53;10471634;28;20308;-69
2023/08/12 18:08:49;;;;;;;3.30;1.58;;;;;;;19.40;100.00;101391.16;10476587;28;20071;-70
2023/08/12 18:13:50;;;;;;;4.15;1.33;;;;;;;19.49;100.00;101434.84;10414666;28;20064;-69
2023/08/12 18:18:50;;;;;;;10.27;2.55;;;;;;;19.33;100.00;101438.97;10410822;28;20046;-70
2023/08/12 18:23:51;;;;;;;7.68;1.40;;;;;;;19.19;100.00;101441.66;10410370;28;20405;-67
2023/08/12 18:28:51;;;;;;;7.47;1.42;;;;;;;18.90;100.00;101422.22;10412847;28;20042;-69
2023/08/12 18:33:52;;;;;;;8.30;2.50;;;;;;;18.90;100.00;101466.88;10407030;28;20046;-71
2023/08/12 18:38:52;;;;;;;7.38;1.42;;;;;;;18.65;100.00;101482.72;10403448;28;20038;-71
2023/08/12 18:43:53;;;;;;;5.00;1.50;;;;;;;18.43;100.00;101483.19;10404542;28;20053;-71
2023/08/12 18:48:53;;;;;;;12.23;3.45;;;;;;;18.28;100.00;101489.72;10408458;28;20050;-71
2023/08/12 18:53:54;;;;;;;8.75;4.03;;;;;;;18.03;100.00;101495.50;10444169;28;20045;-70
2023/08/12 18:58:54;;;;;;;13.70;7.72;;;;;;;17.72;100.00;101493.72;10462748;28;20048;-71
2023/08/12 19:03:55;;;;;;;10.90;2.80;;;;;;;17.46;100.00;101497.75;10482034;28;20033;-69
2023/08/12 19:08:55;;;;;;;5.05;1.95;;;;;;;17.26;100.00;101507.00;10484932;28;20048;-70
2023/08/12 19:13:56;;;;;;;5.82;2.50;;;;;;;17.07;100.00;101517.94;10478987;28;20489;-70
2023/08/12 19:18:56;;;;;;;6.63;2.03;;;;;;;16.90;100.00;101529.38;10480578;28;20040;-71
2023/08/12 19:23:57;;;;;;;11.20;3.45;;;;;;;16.72;100.00;101531.59;10480180;28;20048;-70
2023/08/12 19:29:00;;;;;;;8.95;2.58;;;;;;;16.50;100.00;101518.00;10481058;28;20048;-70
2023/08/12 19:34:01;;;;;;;9.48;2.33;;;;;;;16.43;100.00;101550.78;10472815;28;20429;-70
2023/08/12 19:39:01;;;;;;;5.07;2.25;;;;;;;16.29;100.00;101550.50;10458807;28;20041;-69
2023/08/12 19:44:04;;;;;;;5.45;1.90;;;;;;;16.16;100.00;101555.75;10457695;28;20037;-70
2023/08/12 19:49:05;;;;;;;10.38;2.67;;;;;;;16.07;100.00;101555.47;10459064;28;20116;-69
2023/08/12 19:54:05;;;;;;;8.00;2.08;;;;;;;15.97;100.00;101558.22;10457478;28;20102;-69
2023/08/12 19:59:05;;;;;;;12.30;3.30;;;;;;;15.87;100.00;101565.41;10454689;28;20079;-69
2023/08/12 20:04:06;;;;;;;11.07;2.92;;;;;;;15.83;100.00;101558.72;10441671;28;20379;-68
2023/08/12 20:09:07;;;;;;;10.77;2.67;;;;;;;15.72;100.00;101563.41;10453097;28;20172;-69
2023/08/12 20:14:07;;;;;;;8.40;2.38;;;;;;;15.68;100.00;101566.97;10450244;28;20040;-69
2023/08/12 20:19:07;;;;;;;11.20;2.90;;;;;;;15.61;100.00;101571.97;10458175;28;20033;-69
2023/08/12 20:24:09;;;;;;;8.43;1.98;;;;;;;15.57;100.00;101562.50;10457621;28;20056;-69
2023/08/12 20:29:10;;;;;;;7.03;1.75;;;;;;;15.54;100.00;101559.19;10457740;28;20052;-69
2023/08/12 20:34:10;;;;;;;7.70;2.20;;;;;;;15.45;100.00;101557.19;10457138;28;20444;-69
2023/08/12 20:39:10;;;;;;;8.75;2.83;;;;;;;15.34;100.00;101568.22;10454868;28;20072;-69
2023/08/12 20:44:11;;;;;;;9.20;2.58;;;;;;;15.25;100.00;101560.69;10454502;28;20065;-69
2023/08/12 20:49:11;;;;;;;7.25;3.03;;;;;;;15.18;100.00;101565.66;10452264;28;20044;-69
2023/08/12 20:54:12;;;;;;;7.55;2.38;;;;;;;15.14;100.00;101557.03;10439011;28;20033;-69
2023/08/12 20:59:12;;;;;;;6.20;2.22;;;;;;;15.07;100.00;101561.97;10439633;28;20171;-66
2023/08/12 21:04:13;;;;;;;10.90;2.47;;;;;;;14.95;100.00;101548.31;10456623;28;20048;-69
2023/08/12 21:09:14;;;;;;;10.32;2.42;;;;;;;14.91;100.00;101556.31;10452926;28;20127;-69
2023/08/12 21:14:14;;;;;;;9.23;1.90;;;;;;;14.87;100.00;101557.13;10452007;28;20119;-69
2023/08/12 21:19:17;;;;;;;10.52;2.30;;;;;;;14.84;100.00;101552.09;10451018;28;20048;-69
2023/08/12 21:24:18;;;;;;;8.00;2.55;;;;;;;14.77;100.00;101541.25;10452120;28;20041;-70
2023/08/12 21:29:20;;;;;;;6.65;2.35;;;;;;;14.69;100.00;101550.06;10451784;28;20128;-69
2023/08/12 21:34:20;;;;;;;11.20;2.25;;;;;;;14.62;100.00;101543.91;10439253;28;20436;-69
2023/08/12 21:39:21;;;;;;;11.45;3.03;;;;;;;14.58;100.00;101546.38;10447517;28;20033;-69
2023/08/12 21:44:21;;;;;;;7.38;2.55;;;;;;;14.46;100.00;101542.91;10451397;28;20049;-69
2023/08/12 21:49:22;;;;;;;18.98;3.35;;;;;;;14.43;100.00;101546.22;10452618;28;20124;-68
2023/08/12 21:54:23;;;;;;;11.48;2.60;;;;;;;14.36;100.00;101548.38;10454872;28;20044;-69
2023/08/12 21:59:23;;;;;;;6.68;2.45;;;;;;;14.27;100.00;101543.31;10465726;28;20060;-69
2023/08/12 22:04:24;;;;;;;10.43;2.58;;;;;;;14.21;100.00;101541.59;10480244;28;20045;-68
2023/08/12 22:09:28;;;;;;;12.25;3.70;;;;;;;14.15;100.00;101545.41;10476944;28;20052;-69
2023/08/12 22:14:29;;;;;;;12.32;2.38;;;;;;;14.14;100.00;101543.75;10472368;28;20061;-69
2023/08/12 22:19:29;;;;;;;8.77;2.78;;;;;;;14.09;100.00;101546.44;10481619;28;20037;-69
2023/08/12 22:24:30;;;;;;;7.57;2.40;;;;;;;14.03;100.00;101536.41;10464638;28;20041;-70
2023/08/12 22:29:30;;;;;;;7.43;2.97;;;;;;;14.01;100.00;101533.06;10461741;28;20481;-69